La Mata - P.N. Sant Llorenç del Munt i l'Obac





Hora UTC 14:05
Temperatura 19.6 ºC
Humitat 49.3 %
Pressió 1019.1 hPa
Pluja 0.0 mm
Velocitat vent 1.4 km/h
Direcció vent SW
Radiació solar 603.5 W/m²
Fuel 61.6 %

Dades diàries 2021-09-19



Hora UTC (hivern +1h; estiu +2h)
Temperatura (ºC) Humitat (%) Pressió (hPa) Velocitat vent (km/h) Precipitació (mm) Fuel (%) Radiació solar (W/m²)
Hora UTC Aire Humitat Pressió Vel. Dir. Vel. Max Dir. Intent. màx 5 min. Fuel Rad. Sol.
00:05 14.4 87.8 1017.0 12.1 W 12.1 WSW 0.0 264.6 0.1
00:15 14.2 87.5 1017.1 10.2 W 15.9 WNW 0.0 262.9 0.1
00:25 13.8 87.6 1017.0 6.8 WNW 14.8 WNW 0.0 261.4 0.1
00:35 13.6 81.5 1017.0 5.7 WNW 14.8 WNW 0.0 258.8 0.1
00:45 13.6 75.8 1017.0 6.2 WNW 15.9 NNW 0.0 255.6 0.1
00:55 13.6 70.6 1016.9 2.3 WNW 9.2 W 0.0 251.0 0.1
01:05 13.5 68.3 1016.9 7.5 WNW 14.8 WNW 0.0 247.5 0.1
01:15 13.5 68.6 1016.9 7.0 WNW 14.8 NW 0.0 243.4 0.1
01:25 13.1 72.4 1016.8 8.7 W 16.2 W 0.0 239.9 0.1
01:35 12.7 74.6 1016.8 9.6 WNW 20.5 W 0.0 237.0 0.1
01:45 12.4 73.4 1016.8 8.9 WNW 25.4 NW 0.0 233.9 0.1
01:55 12.0 75.2 1016.9 3.6 SE 9.5 WSW 0.0 231.2 0.1
02:05 11.9 72.3 1016.8 2.9 ENE 10.2 N 0.0 228.9 0.1
02:15 11.8 70.8 1016.8 2.3 NNW 8.8 NW 0.0 226.8 0.1
02:25 11.6 71.6 1017.0 3.9 NNE 10.9 NNW 0.0 224.9 0.1
02:35 11.4 73.3 1016.9 3.8 NNE 9.5 NE 0.0 223.3 0.1
02:45 11.2 74.4 1016.9 4.3 NNW 14.1 NNE 0.0 221.7 0.1
02:55 11.0 73.9 1016.8 2.2 N 11.3 NW 0.0 220.0 0.1
03:05 10.7 73.6 1016.7 6.0 N 22.9 NW 0.0 218.2 0.1
03:15 11.0 69.6 1016.7 5.2 NW 19.1 W 0.0 215.5 0.1
03:25 10.9 70.0 1016.8 2.9 SW 11.3 WSW 0.0 212.6 0.1
03:35 10.8 69.7 1016.8 8.0 WNW 14.5 NW 0.0 210.0 0.1
03:45 10.6 71.4 1016.8 4.6 NNE 12.4 NNE 0.0 207.6 0.1
03:55 10.2 73.7 1016.8 1.9 ESE 7.4 ESE 0.0 205.8 0.1
04:05 9.9 74.9 1016.8 5.3 NNW 12.4 NW 0.0 204.4 0.1
04:15 9.8 76.4 1016.7 3.5 NNE 10.2 NE 0.0 203.0 0.1
04:25 9.3 79.2 1016.6 2.9 ENE 13.4 NNE 0.0 202.1 0.1
04:35 9.0 81.5 1016.8 2.5 ENE 9.5 SW 0.0 201.4 0.1
04:45 9.1 81.2 1017.0 5.9 WNW 13.8 WNW 0.0 200.6 0.1
04:55 8.9 82.3 1017.0 4.1 NE 11.6 N 0.0 199.8 0.1
05:05 8.8 82.8 1017.2 3.3 N 15.2 W 0.0 199.2 0.1
05:15 8.6 84.0 1017.3 2.6 ENE 5.3 NNE 0.0 198.6 0.1
05:25 8.4 84.9 1017.4 4.9 NE 9.2 NW 0.0 198.3 0.9
05:35 8.5 84.7 1017.5 3.6 N 7.8 NNW 0.0 198.1 3.3
05:45 8.6 84.1 1017.6 5.8 N 15.9 NNW 0.0 197.8 7.6
05:55 8.9 83.0 1017.7 7.8 NNW 16.9 NNW 0.0 196.8 11.9
06:05 8.9 83.4 1017.9 5.9 N 14.1 N 0.0 195.7 46.7
06:15 9.0 83.7 1018.1 3.7 NW 9.9 NW 0.0 195.0 96.8
06:25 9.3 82.8 1018.1 3.5 NW 8.8 NNW 0.0 194.2 125.7
06:35 9.7 82.4 1018.2 4.8 NNW 10.6 NNE 0.0 193.4 155.1
06:45 9.7 81.9 1018.3 7.2 NNW 12.0 N 0.0 192.3 184.7
06:55 9.9 82.2 1018.3 2.8 N 8.1 NNE 0.0 190.8 215.6
07:05 10.2 80.9 1018.4 4.0 NNW 11.6 NW 0.0 186.9 246.7
07:15 10.2 80.7 1018.5 5.4 NNW 14.1 NNW 0.0 182.0 277.7
07:25 10.3 81.1 1018.5 7.0 N 14.5 N 0.0 177.1 309.2
07:35 10.4 80.8 1018.5 7.7 NNW 13.8 N 0.0 172.4 339.2
07:45 11.2 80.5 1018.7 1.6 NE 6.0 NE 0.0 168.1 369.4
07:55 11.1 79.0 1018.7 8.2 N 16.2 NNE 0.0 162.4 399.4
08:05 11.0 79.5 1018.8 9.7 N 18.4 N 0.0 157.7 428.3
08:15 11.1 79.6 1018.9 8.4 N 17.3 N 0.0 153.4 455.1
08:25 11.3 80.2 1019.0 10.5 N 19.8 NNW 0.0 149.1 483.0
08:35 11.5 80.9 1019.0 11.5 N 20.1 N 0.0 145.6 508.7
08:45 11.8 80.6 1019.1 8.4 N 16.6 N 0.0 142.0 533.4
08:55 11.8 80.7 1019.2 11.2 N 17.6 NNW 0.0 138.3 558.3
09:05 12.1 79.6 1019.3 11.4 N 19.8 NNE 0.0 134.7 581.0
09:15 12.3 78.9 1019.4 11.4 N 19.1 NNW 0.0 131.0 603.6
09:25 12.5 78.2 1019.4 11.7 N 21.5 N 0.0 127.7 625.6
09:35 12.8 78.3 1019.5 11.3 N 20.1 N 0.0 124.3 645.6
09:45 12.9 77.7 1019.6 8.3 N 21.2 NNW 0.0 120.9 663.2
09:55 13.2 77.9 1019.6 10.0 N 18.7 NNW 0.0 117.3 680.0
10:05 13.8 76.7 1019.6 7.4 N 14.5 N 0.0 114.0 696.2
10:15 13.6 76.9 1019.6 8.2 N 17.3 SW 0.0 110.4 710.5
10:25 14.2 76.3 1019.5 7.4 N 16.2 NNW 0.0 107.2 723.0
10:35 14.7 73.7 1019.5 6.7 N 18.0 NNW 0.0 103.8 732.1
10:45 14.7 72.5 1019.6 7.0 NNW 18.0 NW 0.0 100.3 744.0
10:55 14.9 72.3 1019.6 6.2 NNW 13.1 N 0.0 97.2 744.6
11:05 15.9 69.5 1019.6 5.8 N 14.5 N 0.0 94.2 755.3
11:15 16.5 66.8 1019.7 4.0 NNW 12.4 WNW 0.0 91.0 762.6
11:25 16.3 66.7 1019.7 3.4 NW 10.9 NW 0.0 88.3 764.9
11:35 16.3 65.4 1019.7 3.5 N 8.5 WNW 0.0 85.7 767.0
11:45 17.2 61.8 1019.7 3.8 NW 12.7 NNW 0.0 83.2 767.3
11:55 16.7 61.0 1019.7 5.9 WNW 14.8 NNW 0.0 80.8 763.9
12:05 17.2 57.9 1019.7 5.5 WNW 11.6 NW 0.0 79.2 759.7
12:15 17.5 57.1 1019.7 4.6 NNW 17.3 W 0.0 77.3 754.3
12:25 17.8 55.4 1019.7 6.3 NW 15.5 WNW 0.0 75.5 745.8
12:35 17.5 55.8 1019.6 5.6 NNW 12.4 N 0.0 73.7 740.1
12:45 18.2 54.5 1019.5 3.3 NW 7.8 ENE 0.0 72.0 732.4
12:55 18.0 55.5 1019.5 5.9 W 19.4 W 0.0 70.2 722.0
13:05 18.5 52.8 1019.5 5.3 WNW 14.8 NNW 0.0 69.0 711.8
13:15 18.5 51.9 1019.4 6.1 WNW 14.5 NW 0.0 67.5 695.2
13:25 18.9 52.3 1019.3 5.3 WNW 14.8 W 0.0 66.4 682.3
13:35 18.9 46.9 1019.2 8.5 W 19.8 W 0.0 64.4 663.8
13:45 19.0 50.7 1019.2 4.8 NW 10.6 NNW 0.0 63.6 645.2
13:55 19.2 47.2 1019.1 7.8 W 18.7 WSW 0.0 62.2 624.8
14:05 19.6 49.3 1019.1 1.4 SW 6.4 WSW 0.0 61.6 603.5
Màxima 19.9 87.8 1019.7 12.1 W 25.4 NW 0.0 264.6 767.3
Mínima 8.4 46.9 1016.6 61.6
Total 0.0